sensor_id;sensor_type;location;lat;lon;timestamp;pressure;altitude;pressure_sealevel;temperature;humidity
33454;BME280;39400;49.744;7.012;2022-08-03T00:00:28;96120.75;;;21.17;66.79
33454;BME280;39400;49.744;7.012;2022-08-03T00:02:55;96115.44;;;21.10;67.03
33454;BME280;39400;49.744;7.012;2022-08-03T00:05:22;96110.13;;;21.03;67.06
33454;BME280;39400;49.744;7.012;2022-08-03T00:07:49;96115.03;;;20.89;67.38
33454;BME280;39400;49.744;7.012;2022-08-03T00:10:18;96112.34;;;20.55;69.18
33454;BME280;39400;49.744;7.012;2022-08-03T00:12:45;96109.00;;;20.69;68.65
33454;BME280;39400;49.744;7.012;2022-08-03T00:15:12;96115.03;;;20.89;68.67
33454;BME280;39400;49.744;7.012;2022-08-03T00:17:43;96110.34;;;20.86;67.96
33454;BME280;39400;49.744;7.012;2022-08-03T00:20:23;96107.97;;;20.76;68.68
33454;BME280;39400;49.744;7.012;2022-08-03T00:22:50;96110.78;;;20.85;68.22
33454;BME280;39400;49.744;7.012;2022-08-03T00:25:17;96101.81;;;20.59;68.78
33454;BME280;39400;49.744;7.012;2022-08-03T00:27:45;96097.84;;;20.69;67.91
33454;BME280;39400;49.744;7.012;2022-08-03T00:30:14;96099.00;;;20.59;68.71
33454;BME280;39400;49.744;7.012;2022-08-03T00:32:43;96097.22;;;20.74;67.96
33454;BME280;39400;49.744;7.012;2022-08-03T00:35:11;96094.34;;;20.56;68.78
33454;BME280;39400;49.744;7.012;2022-08-03T00:37:58;96100.44;;;20.41;69.44
33454;BME280;39400;49.744;7.012;2022-08-03T00:40:26;96086.53;;;20.29;70.06
33454;BME280;39400;49.744;7.012;2022-08-03T00:42:57;96084.44;;;20.20;70.94
33454;BME280;39400;49.744;7.012;2022-08-03T00:45:30;96087.88;;;20.24;70.85
33454;BME280;39400;49.744;7.012;2022-08-03T00:47:58;96082.19;;;20.28;70.30
33454;BME280;39400;49.744;7.012;2022-08-03T00:50:27;96087.16;;;20.11;71.34
33454;BME280;39400;49.744;7.012;2022-08-03T00:52:57;96089.41;;;20.16;71.61
33454;BME280;39400;49.744;7.012;2022-08-03T00:55:25;96087.16;;;20.11;71.65
33454;BME280;39400;49.744;7.012;2022-08-03T00:57:53;96087.69;;;20.40;70.95
33454;BME280;39400;49.744;7.012;2022-08-03T01:00:23;96089.53;;;20.34;71.14
33454;BME280;39400;49.744;7.012;2022-08-03T01:02:51;96085.56;;;20.45;70.52
33454;BME280;39400;49.744;7.012;2022-08-03T01:05:20;96084.94;;;20.50;70.45
33454;BME280;39400;49.744;7.012;2022-08-03T01:10:52;96088.19;;;20.04;72.95
33454;BME280;39400;49.744;7.012;2022-08-03T01:16:14;96081.97;;;20.22;71.98
33454;BME280;39400;49.744;7.012;2022-08-03T01:18:48;96075.31;;;20.19;71.95
33454;BME280;39400;49.744;7.012;2022-08-03T01:24:36;96079.31;;;19.97;73.68
33454;BME280;39400;49.744;7.012;2022-08-03T01:30:00;96065.09;;;20.04;72.88
33454;BME280;39400;49.744;7.012;2022-08-03T01:35:49;96071.19;;;19.89;74.06
33454;BME280;39400;49.744;7.012;2022-08-03T01:38:32;96061.56;;;19.90;74.39
33454;BME280;39400;49.744;7.012;2022-08-03T01:41:30;96058.94;;;19.74;74.69
33454;BME280;39400;49.744;7.012;2022-08-03T01:44:01;96056.41;;;19.67;74.50
33454;BME280;39400;49.744;7.012;2022-08-03T01:46:49;96057.13;;;19.80;73.68
33454;BME280;39400;49.744;7.012;2022-08-03T01:49:17;96052.78;;;19.79;73.73
33454;BME280;39400;49.744;7.012;2022-08-03T01:51:46;96052.06;;;19.88;73.87
33454;BME280;39400;49.744;7.012;2022-08-03T01:54:35;96055.59;;;19.79;74.04
33454;BME280;39400;49.744;7.012;2022-08-03T01:57:03;96052.16;;;19.62;74.77
33454;BME280;39400;49.744;7.012;2022-08-03T01:59:34;96055.41;;;19.61;75.11
33454;BME280;39400;49.744;7.012;2022-08-03T02:02:03;96056.09;;;19.65;74.80
33454;BME280;39400;49.744;7.012;2022-08-03T02:04:53;96051.38;;;19.62;75.54
33454;BME280;39400;49.744;7.012;2022-08-03T02:07:22;96047.72;;;19.52;75.24
33454;BME280;39400;49.744;7.012;2022-08-03T02:09:51;96044.94;;;19.65;74.65
33454;BME280;39400;49.744;7.012;2022-08-03T02:12:19;96042.91;;;19.65;74.71
33454;BME280;39400;49.744;7.012;2022-08-03T02:14:48;96045.34;;;19.76;74.69
33454;BME280;39400;49.744;7.012;2022-08-03T02:17:17;96044.94;;;19.65;75.07
33454;BME280;39400;49.744;7.012;2022-08-03T02:20:07;96047.47;;;19.72;75.25
33454;BME280;39400;49.744;7.012;2022-08-03T02:22:34;96044.34;;;19.70;75.02
33454;BME280;39400;49.744;7.012;2022-08-03T02:25:07;96043.34;;;19.64;75.81
33454;BME280;39400;49.744;7.012;2022-08-03T02:27:38;96050.28;;;19.46;76.29
33454;BME280;39400;49.744;7.012;2022-08-03T02:30:11;96042.00;;;19.56;75.80
33454;BME280;39400;49.744;7.012;2022-08-03T02:32:42;96047.31;;;19.28;78.17
33454;BME280;39400;49.744;7.012;2022-08-03T02:35:12;96041.72;;;19.41;77.19
33454;BME280;39400;49.744;7.012;2022-08-03T02:37:42;96040.13;;;19.53;76.37
33454;BME280;39400;49.744;7.012;2022-08-03T02:40:17;96045.16;;;19.58;76.00
33454;BME280;39400;49.744;7.012;2022-08-03T02:42:48;96041.84;;;19.37;76.93
33454;BME280;39400;49.744;7.012;2022-08-03T02:45:17;96038.84;;;19.32;78.15
33454;BME280;39400;49.744;7.012;2022-08-03T02:47:46;96037.16;;;19.34;78.67
33454;BME280;39400;49.744;7.012;2022-08-03T02:50:21;96045.00;;;19.14;80.59
33454;BME280;39400;49.744;7.012;2022-08-03T02:52:50;96042.22;;;19.14;80.99
33454;BME280;39400;49.744;7.012;2022-08-03T02:55:19;96032.06;;;19.07;80.46
33454;BME280;39400;49.744;7.012;2022-08-03T02:57:47;96028.28;;;19.14;80.65
33454;BME280;39400;49.744;7.012;2022-08-03T03:00:16;96030.06;;;19.08;81.27
33454;BME280;39400;49.744;7.012;2022-08-03T03:02:57;96031.53;;;18.99;81.93
33454;BME280;39400;49.744;7.012;2022-08-03T03:05:25;96034.97;;;19.04;82.03
33454;BME280;39400;49.744;7.012;2022-08-03T03:08:18;96024.72;;;19.13;82.09
33454;BME280;39400;49.744;7.012;2022-08-03T03:10:58;96033.19;;;19.10;81.41
33454;BME280;39400;49.744;7.012;2022-08-03T03:13:27;96027.84;;;18.77;84.57
33454;BME280;39400;49.744;7.012;2022-08-03T03:15:56;96030.53;;;18.93;82.67
33454;BME280;39400;49.744;7.012;2022-08-03T03:18:27;96032.78;;;18.98;82.22
33454;BME280;39400;49.744;7.012;2022-08-03T03:20:55;96038.75;;;18.84;82.34
33454;BME280;39400;49.744;7.012;2022-08-03T03:23:24;96032.78;;;18.98;81.25
33454;BME280;39400;49.744;7.012;2022-08-03T03:25:53;96022.97;;;18.81;82.84
33454;BME280;39400;49.744;7.012;2022-08-03T03:28:22;96027.06;;;18.89;84.72
33454;BME280;39400;49.744;7.012;2022-08-03T03:30:50;96028.84;;;18.96;82.44
33454;BME280;39400;49.744;7.012;2022-08-03T03:33:19;96028.75;;;18.74;83.97
33454;BME280;39400;49.744;7.012;2022-08-03T03:35:47;96020.50;;;18.70;83.71
33454;BME280;39400;49.744;7.012;2022-08-03T03:38:15;96030.75;;;18.86;83.03
33454;BME280;39400;49.744;7.012;2022-08-03T03:40:42;96032.66;;;18.76;83.90
33454;BME280;39400;49.744;7.012;2022-08-03T03:43:10;96030.94;;;18.53;84.75
33454;BME280;39400;49.744;7.012;2022-08-03T03:45:41;96028.16;;;18.66;83.94
33454;BME280;39400;49.744;7.012;2022-08-03T03:48:09;96033.41;;;18.77;83.04
33454;BME280;39400;49.744;7.012;2022-08-03T03:50:37;96036.31;;;18.61;85.24
33454;BME280;39400;49.744;7.012;2022-08-03T03:53:11;96037.19;;;18.58;84.24
33454;BME280;39400;49.744;7.012;2022-08-03T03:55:39;96033.41;;;18.77;82.46
33454;BME280;39400;49.744;7.012;2022-08-03T03:58:26;96025.81;;;18.65;83.74
33454;BME280;39400;49.744;7.012;2022-08-03T04:00:54;96032.06;;;18.43;86.10
33454;BME280;39400;49.744;7.012;2022-08-03T04:03:21;96032.06;;;18.43;86.43
33454;BME280;39400;49.744;7.012;2022-08-03T04:05:48;96024.44;;;18.31;89.91
33454;BME280;39400;49.744;7.012;2022-08-03T04:08:34;96032.19;;;18.11;91.13
33454;BME280;39400;49.744;7.012;2022-08-03T04:11:35;96032.94;;;18.40;90.07
33454;BME280;39400;49.744;7.012;2022-08-03T04:14:11;96020.88;;;18.30;89.39
33454;BME280;39400;49.744;7.012;2022-08-03T04:16:43;96026.25;;;18.50;89.84
33454;BME280;39400;49.744;7.012;2022-08-03T04:19:16;96029.84;;;18.64;88.40
33454;BME280;39400;49.744;7.012;2022-08-03T04:21:51;96016.38;;;18.75;86.79
33454;BME280;39400;49.744;7.012;2022-08-03T04:24:19;96031.88;;;18.76;86.85
33454;BME280;39400;49.744;7.012;2022-08-03T04:26:52;96028.84;;;18.83;85.82
33454;BME280;39400;49.744;7.012;2022-08-03T04:29:21;96043.00;;;19.01;84.98
33454;BME280;39400;49.744;7.012;2022-08-03T04:31:49;96046.16;;;18.78;88.05
33454;BME280;39400;49.744;7.012;2022-08-03T04:34:17;96037.88;;;18.87;88.44
33454;BME280;39400;49.744;7.012;2022-08-03T04:36:48;96044.13;;;18.91;86.90
33454;BME280;39400;49.744;7.012;2022-08-03T04:39:23;96035.63;;;19.08;87.01
33454;BME280;39400;49.744;7.012;2022-08-03T04:41:57;96042.91;;;19.05;86.98
33454;BME280;39400;49.744;7.012;2022-08-03T04:44:40;96048.38;;;19.09;86.99
33454;BME280;39400;49.744;7.012;2022-08-03T04:47:08;96053.25;;;19.05;87.53
33454;BME280;39400;49.744;7.012;2022-08-03T04:49:36;96055.47;;;18.84;89.62
33454;BME280;39400;49.744;7.012;2022-08-03T04:52:06;96048.47;;;19.05;88.36
33454;BME280;39400;49.744;7.012;2022-08-03T04:54:41;96051.78;;;19.25;86.34
33454;BME280;39400;49.744;7.012;2022-08-03T04:57:11;96050.00;;;19.32;85.90
33454;BME280;39400;49.744;7.012;2022-08-03T04:59:50;96054.56;;;19.38;86.48
33454;BME280;39400;49.744;7.012;2022-08-03T05:02:28;96053.91;;;19.34;86.12
33454;BME280;39400;49.744;7.012;2022-08-03T05:04:55;96046.66;;;19.37;87.53
33454;BME280;39400;49.744;7.012;2022-08-03T05:07:22;96051.31;;;19.40;87.62
33454;BME280;39400;49.744;7.012;2022-08-03T05:09:50;96055.56;;;19.44;87.19
33454;BME280;39400;49.744;7.012;2022-08-03T05:12:29;96049.81;;;19.61;85.52
33454;BME280;39400;49.744;7.012;2022-08-03T05:14:59;96056.41;;;19.67;84.94
33454;BME280;39400;49.744;7.012;2022-08-03T05:17:27;96058.72;;;19.81;83.70
33454;BME280;39400;49.744;7.012;2022-08-03T05:19:54;96050.53;;;19.87;84.17
33454;BME280;39400;49.744;7.012;2022-08-03T05:22:22;96060.41;;;20.01;84.37
33454;BME280;39400;49.744;7.012;2022-08-03T05:24:49;96060.50;;;20.10;84.46
33454;BME280;39400;49.744;7.012;2022-08-03T05:27:17;96059.13;;;20.14;85.80
33454;BME280;39400;49.744;7.012;2022-08-03T05:29:48;96066.00;;;20.23;86.47
33454;BME280;39400;49.744;7.012;2022-08-03T05:32:16;96064.00;;;20.23;86.44
33454;BME280;39400;49.744;7.012;2022-08-03T05:34:44;96064.84;;;20.11;88.26
33454;BME280;39400;49.744;7.012;2022-08-03T05:37:11;96064.94;;;20.29;86.80
33454;BME280;39400;49.744;7.012;2022-08-03T05:39:38;96068.47;;;20.42;85.94
33454;BME280;39400;49.744;7.012;2022-08-03T05:42:05;96056.38;;;20.46;85.50
33454;BME280;39400;49.744;7.012;2022-08-03T05:44:33;96059.63;;;20.44;86.56
33454;BME280;39400;49.744;7.012;2022-08-03T05:47:00;96062.97;;;20.52;85.29
33454;BME280;39400;49.744;7.012;2022-08-03T05:49:27;96058.06;;;20.65;83.66
33454;BME280;39400;49.744;7.012;2022-08-03T05:51:54;96067.53;;;20.67;84.08
33454;BME280;39400;49.744;7.012;2022-08-03T05:54:41;96056.41;;;20.77;83.84
33454;BME280;39400;49.744;7.012;2022-08-03T05:57:24;96047.59;;;20.78;85.89
33454;BME280;39400;49.744;7.012;2022-08-03T05:59:51;96054.13;;;20.84;85.44
33454;BME280;39400;49.744;7.012;2022-08-03T06:02:25;96054.16;;;20.94;84.46
33454;BME280;39400;49.744;7.012;2022-08-03T06:04:52;96048.47;;;21.06;83.90
33454;BME280;39400;49.744;7.012;2022-08-03T06:07:20;96053.31;;;21.15;83.46
33454;BME280;39400;49.744;7.012;2022-08-03T06:09:47;96065.75;;;21.23;83.25
33454;BME280;39400;49.744;7.012;2022-08-03T06:12:34;96062.56;;;21.34;82.15
33454;BME280;39400;49.744;7.012;2022-08-03T06:15:03;96063.06;;;21.42;80.89
33454;BME280;39400;49.744;7.012;2022-08-03T06:17:30;96063.38;;;21.53;79.59
33454;BME280;39400;49.744;7.012;2022-08-03T06:20:04;96059.19;;;21.57;80.16
33454;BME280;39400;49.744;7.012;2022-08-03T06:22:32;96063.69;;;21.64;80.71
33454;BME280;39400;49.744;7.012;2022-08-03T06:24:59;96064.31;;;21.68;80.82
33454;BME280;39400;49.744;7.012;2022-08-03T06:27:34;96059.53;;;21.78;79.32
33454;BME280;39400;49.744;7.012;2022-08-03T06:30:07;96054.72;;;21.88;78.31
33454;BME280;39400;49.744;7.012;2022-08-03T06:32:37;96064.66;;;21.98;77.45
33454;BME280;39400;49.744;7.012;2022-08-03T06:35:06;96058.44;;;21.94;76.46
33454;BME280;39400;49.744;7.012;2022-08-03T06:37:44;96060.00;;;22.13;76.01
33454;BME280;39400;49.744;7.012;2022-08-03T06:40:12;96060.66;;;22.17;75.20
33454;BME280;39400;49.744;7.012;2022-08-03T06:42:47;96060.97;;;22.28;73.38
33454;BME280;39400;49.744;7.012;2022-08-03T06:45:16;96063.13;;;22.43;74.32
33454;BME280;39400;49.744;7.012;2022-08-03T06:47:43;96068.38;;;22.50;74.13
33454;BME280;39400;49.744;7.012;2022-08-03T06:50:10;96061.84;;;22.62;75.15
33454;BME280;39400;49.744;7.012;2022-08-03T06:52:43;96071.78;;;22.72;77.70
33454;BME280;39400;49.744;7.012;2022-08-03T06:55:11;96073.00;;;22.81;77.58
33454;BME280;39400;49.744;7.012;2022-08-03T06:57:38;96077.50;;;22.87;76.37
33454;BME280;39400;49.744;7.012;2022-08-03T07:00:06;96071.41;;;22.89;73.90
33454;BME280;39400;49.744;7.012;2022-08-03T07:02:38;96074.03;;;23.01;69.30
33454;BME280;39400;49.744;7.012;2022-08-03T07:05:06;96071.31;;;23.16;65.82
33454;BME280;39400;49.744;7.012;2022-08-03T07:07:34;96077.50;;;23.30;65.76
33454;BME280;39400;49.744;7.012;2022-08-03T07:10:03;96070.44;;;23.34;63.45
33454;BME280;39400;49.744;7.012;2022-08-03T07:12:31;96079.25;;;23.51;63.78
33454;BME280;39400;49.744;7.012;2022-08-03T07:14:59;96076.75;;;23.53;63.99
33454;BME280;39400;49.744;7.012;2022-08-03T07:17:30;96081.84;;;23.64;62.12
33454;BME280;39400;49.744;7.012;2022-08-03T07:19:58;96081.31;;;23.75;61.51
33454;BME280;39400;49.744;7.012;2022-08-03T07:22:25;96087.91;;;23.71;62.07
33454;BME280;39400;49.744;7.012;2022-08-03T07:24:53;96084.81;;;23.69;61.46
33454;BME280;39400;49.744;7.012;2022-08-03T07:27:20;96084.38;;;23.86;60.77
33454;BME280;39400;49.744;7.012;2022-08-03T07:29:47;96086.44;;;24.00;60.07
33454;BME280;39400;49.744;7.012;2022-08-03T07:32:14;96088.06;;;24.16;60.32
33454;BME280;39400;49.744;7.012;2022-08-03T07:34:42;96078.22;;;24.35;58.91
33454;BME280;39400;49.744;7.012;2022-08-03T07:37:09;96085.81;;;24.44;58.09
33454;BME280;39400;49.744;7.012;2022-08-03T07:39:37;96092.22;;;24.59;56.94
33454;BME280;39400;49.744;7.012;2022-08-03T07:42:04;96079.22;;;24.62;55.83
33454;BME280;39400;49.744;7.012;2022-08-03T07:44:31;96085.63;;;24.62;55.34
33454;BME280;39400;49.744;7.012;2022-08-03T07:46:58;96085.84;;;24.74;55.43
33454;BME280;39400;49.744;7.012;2022-08-03T07:49:29;96079.13;;;24.86;54.92
33454;BME280;39400;49.744;7.012;2022-08-03T07:51:57;96082.91;;;24.83;54.53
33454;BME280;39400;49.744;7.012;2022-08-03T07:54:43;96077.28;;;24.68;54.71
33454;BME280;39400;49.744;7.012;2022-08-03T07:57:11;96082.81;;;24.77;54.77
33454;BME280;39400;49.744;7.012;2022-08-03T07:59:38;96079.50;;;24.94;54.57
33454;BME280;39400;49.744;7.012;2022-08-03T08:02:26;96084.84;;;25.06;53.57
33454;BME280;39400;49.744;7.012;2022-08-03T08:04:53;96081.38;;;25.11;53.36
33454;BME280;39400;49.744;7.012;2022-08-03T08:07:21;96072.44;;;24.98;53.96
33454;BME280;39400;49.744;7.012;2022-08-03T08:09:48;96077.66;;;25.05;53.28
33454;BME280;39400;49.744;7.012;2022-08-03T08:12:15;96078.84;;;25.13;52.91
33454;BME280;39400;49.744;7.012;2022-08-03T08:14:43;96074.38;;;25.22;52.83
33454;BME280;39400;49.744;7.012;2022-08-03T08:17:12;96073.38;;;25.40;52.51
33454;BME280;39400;49.744;7.012;2022-08-03T08:19:40;96084.81;;;25.36;52.47
33454;BME280;39400;49.744;7.012;2022-08-03T08:22:17;96084.22;;;25.47;51.28
33454;BME280;39400;49.744;7.012;2022-08-03T08:24:57;96081.31;;;25.41;52.38
33454;BME280;39400;49.744;7.012;2022-08-03T08:27:25;96080.22;;;25.53;51.11
33454;BME280;39400;49.744;7.012;2022-08-03T08:29:52;96078.66;;;25.52;51.36
33454;BME280;39400;49.744;7.012;2022-08-03T08:32:22;96090.31;;;25.80;51.91
33454;BME280;39400;49.744;7.012;2022-08-03T08:34:49;96089.56;;;25.80;49.61
33454;BME280;39400;49.744;7.012;2022-08-03T08:37:16;96088.72;;;25.94;50.03
33454;BME280;39400;49.744;7.012;2022-08-03T08:39:43;96089.72;;;25.91;50.92
33454;BME280;39400;49.744;7.012;2022-08-03T08:42:11;96081.41;;;25.82;50.57
33454;BME280;39400;49.744;7.012;2022-08-03T08:44:38;96088.72;;;25.94;49.89
33454;BME280;39400;49.744;7.012;2022-08-03T08:47:06;96092.38;;;26.00;49.37
33454;BME280;39400;49.744;7.012;2022-08-03T08:49:36;96080.13;;;26.03;50.06
33454;BME280;39400;49.744;7.012;2022-08-03T08:52:06;96084.84;;;26.12;50.51
33454;BME280;39400;49.744;7.012;2022-08-03T08:54:55;96083.88;;;25.95;49.23
33454;BME280;39400;49.744;7.012;2022-08-03T08:57:25;96098.66;;;26.10;48.82
33454;BME280;39400;49.744;7.012;2022-08-03T09:00:10;96088.22;;;26.16;49.22
33454;BME280;39400;49.744;7.012;2022-08-03T09:02:41;96079.56;;;25.99;48.39
33454;BME280;39400;49.744;7.012;2022-08-03T09:05:12;96074.91;;;25.96;48.65
33454;BME280;39400;49.744;7.012;2022-08-03T09:07:44;96072.84;;;26.17;49.87
33454;BME280;39400;49.744;7.012;2022-08-03T09:10:14;96083.28;;;26.11;48.83
33454;BME280;39400;49.744;7.012;2022-08-03T09:12:43;96079.97;;;26.33;48.52
33454;BME280;39400;49.744;7.012;2022-08-03T09:17:44;96081.75;;;26.56;48.06
33454;BME280;39400;49.744;7.012;2022-08-03T09:20:18;96083.97;;;26.73;47.40
33454;BME280;39400;49.744;7.012;2022-08-03T09:22:55;96077.56;;;26.72;47.21
33454;BME280;39400;49.744;7.012;2022-08-03T09:25:37;96071.09;;;26.66;47.52
33454;BME280;39400;49.744;7.012;2022-08-03T09:30:41;96069.84;;;26.67;46.45
33454;BME280;39400;49.744;7.012;2022-08-03T09:33:10;96077.78;;;26.69;47.08
33454;BME280;39400;49.744;7.012;2022-08-03T09:35:45;96076.91;;;26.83;46.68
33454;BME280;39400;49.744;7.012;2022-08-03T09:38:24;96070.25;;;26.86;47.69
33454;BME280;39400;49.744;7.012;2022-08-03T09:40:55;96069.94;;;26.78;46.79
33454;BME280;39400;49.744;7.012;2022-08-03T09:43:27;96070.34;;;26.97;45.89
33454;BME280;39400;49.744;7.012;2022-08-03T09:46:03;96061.78;;;26.86;45.90
33454;BME280;39400;49.744;7.012;2022-08-03T09:48:31;96060.44;;;27.08;46.30
33454;BME280;39400;49.744;7.012;2022-08-03T09:51:03;96055.72;;;27.25;46.10
33454;BME280;39400;49.744;7.012;2022-08-03T09:53:42;96060.34;;;27.28;45.55
33454;BME280;39400;49.744;7.012;2022-08-03T09:56:43;96046.59;;;27.41;44.21
33454;BME280;39400;49.744;7.012;2022-08-03T09:59:11;96061.53;;;27.47;44.54
33454;BME280;39400;49.744;7.012;2022-08-03T10:01:39;96057.81;;;27.30;44.72
33454;BME280;39400;49.744;7.012;2022-08-03T10:04:16;96058.59;;;27.04;44.73
33454;BME280;39400;49.744;7.012;2022-08-03T10:06:45;96050.59;;;27.29;45.37
33454;BME280;39400;49.744;7.012;2022-08-03T10:09:14;96046.59;;;27.41;44.07
33454;BME280;39400;49.744;7.012;2022-08-03T10:11:43;96053.22;;;27.76;43.59
33454;BME280;39400;49.744;7.012;2022-08-03T10:14:11;96054.91;;;27.62;43.95
33454;BME280;39400;49.744;7.012;2022-08-03T10:16:46;96047.16;;;27.57;44.01
33454;BME280;39400;49.744;7.012;2022-08-03T10:19:14;96048.75;;;27.58;44.00
33454;BME280;39400;49.744;7.012;2022-08-03T10:21:48;96041.84;;;27.70;43.82
33454;BME280;39400;49.744;7.012;2022-08-03T10:24:18;96038.75;;;27.62;43.31
33454;BME280;39400;49.744;7.012;2022-08-03T10:26:46;96036.09;;;27.53;43.61
33454;BME280;39400;49.744;7.012;2022-08-03T10:29:21;96035.31;;;27.90;43.89
33454;BME280;39400;49.744;7.012;2022-08-03T10:31:53;96029.69;;;27.95;44.86
33454;BME280;39400;49.744;7.012;2022-08-03T10:34:33;96024.00;;;27.90;44.00
33454;BME280;39400;49.744;7.012;2022-08-03T10:37:04;96022.50;;;28.00;43.41
33454;BME280;39400;49.744;7.012;2022-08-03T10:39:33;96014.59;;;28.21;42.12
33454;BME280;39400;49.744;7.012;2022-08-03T10:42:02;96020.75;;;28.25;42.04
33454;BME280;39400;49.744;7.012;2022-08-03T10:44:38;96019.56;;;28.49;41.87
33454;BME280;39400;49.744;7.012;2022-08-03T10:47:08;96015.69;;;28.40;42.76
33454;BME280;39400;49.744;7.012;2022-08-03T10:49:36;96018.78;;;28.48;42.38
33454;BME280;39400;49.744;7.012;2022-08-03T10:52:04;96020.34;;;28.49;41.15
33454;BME280;39400;49.744;7.012;2022-08-03T10:54:52;96020.84;;;28.48;41.08
33454;BME280;39400;49.744;7.012;2022-08-03T11:00:18;96017.22;;;28.47;41.66
33454;BME280;39400;49.744;7.012;2022-08-03T11:03:10;96017.69;;;28.29;41.08
33454;BME280;39400;49.744;7.012;2022-08-03T11:05:41;96007.91;;;28.24;41.29
33454;BME280;39400;49.744;7.012;2022-08-03T11:08:33;96012.91;;;28.80;41.98
33454;BME280;39400;49.744;7.012;2022-08-03T11:11:27;96003.91;;;29.09;41.13
33454;BME280;39400;49.744;7.012;2022-08-03T11:16:27;96011.09;;;29.16;39.72
33454;BME280;39400;49.744;7.012;2022-08-03T11:18:56;96008.00;;;29.25;39.76
33454;BME280;39400;49.744;7.012;2022-08-03T11:24:09;96009.28;;;29.13;40.25
33454;BME280;39400;49.744;7.012;2022-08-03T11:26:36;96013.09;;;29.44;39.79
33454;BME280;39400;49.744;7.012;2022-08-03T11:29:29;96008.97;;;29.67;39.48
33454;BME280;39400;49.744;7.012;2022-08-03T11:31:57;95997.22;;;29.07;39.03
33454;BME280;39400;49.744;7.012;2022-08-03T11:34:24;95995.13;;;29.13;39.06
33454;BME280;39400;49.744;7.012;2022-08-03T11:37:17;95999.22;;;29.40;39.08
33454;BME280;39400;49.744;7.012;2022-08-03T11:39:48;95994.53;;;29.54;38.68
33454;BME280;39400;49.744;7.012;2022-08-03T11:44:50;95999.69;;;29.72;38.94
33454;BME280;39400;49.744;7.012;2022-08-03T11:47:19;95995.91;;;29.19;38.44
33454;BME280;39400;49.744;7.012;2022-08-03T11:49:48;95991.19;;;29.55;38.46
33454;BME280;39400;49.744;7.012;2022-08-03T11:52:16;95985.59;;;30.08;38.46
33454;BME280;39400;49.744;7.012;2022-08-03T11:54:43;95988.28;;;29.83;37.47
33454;BME280;39400;49.744;7.012;2022-08-03T11:57:10;95980.88;;;29.58;38.26
33454;BME280;39400;49.744;7.012;2022-08-03T11:59:38;95981.88;;;29.77;38.65
33454;BME280;39400;49.744;7.012;2022-08-03T12:02:09;95982.25;;;30.51;39.28
33454;BME280;39400;49.744;7.012;2022-08-03T12:04:54;95984.28;;;30.56;38.72
33454;BME280;39400;49.744;7.012;2022-08-03T12:07:28;95980.91;;;30.58;37.83
33454;BME280;39400;49.744;7.012;2022-08-03T12:10:16;95984.00;;;30.60;38.27
33454;BME280;39400;49.744;7.012;2022-08-03T12:12:43;95979.50;;;30.75;38.08
33454;BME280;39400;49.744;7.012;2022-08-03T12:15:12;95973.75;;;30.87;37.94
33454;BME280;39400;49.744;7.012;2022-08-03T12:17:40;95971.25;;;30.77;38.73
33454;BME280;39400;49.744;7.012;2022-08-03T12:20:09;95977.22;;;31.04;38.42
33454;BME280;39400;49.744;7.012;2022-08-03T12:22:38;95973.91;;;31.24;38.17
33454;BME280;39400;49.744;7.012;2022-08-03T12:25:07;95967.75;;;31.20;37.74
33454;BME280;39400;49.744;7.012;2022-08-03T12:27:35;95962.41;;;30.87;37.75
33454;BME280;39400;49.744;7.012;2022-08-03T12:30:03;95967.50;;;30.94;37.01
33454;BME280;39400;49.744;7.012;2022-08-03T12:32:30;95970.84;;;30.62;37.56
33454;BME280;39400;49.744;7.012;2022-08-03T12:34:58;95962.88;;;30.91;37.55
33454;BME280;39400;49.744;7.012;2022-08-03T12:37:28;95964.53;;;30.39;36.67
33454;BME280;39400;49.744;7.012;2022-08-03T12:39:58;95959.88;;;30.77;36.38
33454;BME280;39400;49.744;7.012;2022-08-03T12:42:36;95962.47;;;31.06;36.59
33454;BME280;39400;49.744;7.012;2022-08-03T12:45:25;95960.75;;;30.97;35.63
33454;BME280;39400;49.744;7.012;2022-08-03T12:47:57;95961.72;;;31.05;36.08
33454;BME280;39400;49.744;7.012;2022-08-03T12:50:28;95960.81;;;30.55;36.62
33454;BME280;39400;49.744;7.012;2022-08-03T12:52:59;95960.31;;;30.51;37.05
33454;BME280;39400;49.744;7.012;2022-08-03T12:55:27;95954.97;;;30.72;36.34
33454;BME280;39400;49.744;7.012;2022-08-03T12:58:35;95959.59;;;31.11;35.34
33454;BME280;39400;49.744;7.012;2022-08-03T13:01:03;95968.34;;;31.62;35.86
33454;BME280;39400;49.744;7.012;2022-08-03T13:03:41;95953.06;;;31.65;36.01
33454;BME280;39400;49.744;7.012;2022-08-03T13:06:14;95946.41;;;31.63;37.00
33454;BME280;39400;49.744;7.012;2022-08-03T13:08:42;95959.25;;;31.45;35.23
33454;BME280;39400;49.744;7.012;2022-08-03T13:11:20;95958.63;;;31.03;35.91
33454;BME280;39400;49.744;7.012;2022-08-03T13:13:49;95959.66;;;31.00;35.42
33454;BME280;39400;49.744;7.012;2022-08-03T13:16:16;95950.69;;;30.96;35.46
33454;BME280;39400;49.744;7.012;2022-08-03T13:18:45;95947.63;;;31.18;35.58
33454;BME280;39400;49.744;7.012;2022-08-03T13:21:15;95943.59;;;31.57;35.16
33454;BME280;39400;49.744;7.012;2022-08-03T13:23:42;95937.63;;;31.61;34.45
33454;BME280;39400;49.744;7.012;2022-08-03T13:26:10;95936.00;;;31.65;34.67
33454;BME280;39400;49.744;7.012;2022-08-03T13:28:38;95934.56;;;31.78;33.98
33454;BME280;39400;49.744;7.012;2022-08-03T13:31:06;95931.41;;;32.38;33.38
33454;BME280;39400;49.744;7.012;2022-08-03T13:33:33;95931.81;;;32.29;33.01
33454;BME280;39400;49.744;7.012;2022-08-03T13:36:00;95938.59;;;32.26;32.69
33454;BME280;39400;49.744;7.012;2022-08-03T13:38:27;95924.41;;;32.58;33.49
33454;BME280;39400;49.744;7.012;2022-08-03T13:40:54;95933.88;;;32.28;32.83
33454;BME280;39400;49.744;7.012;2022-08-03T13:43:21;95920.41;;;32.80;32.61
33454;BME280;39400;49.744;7.012;2022-08-03T13:45:49;95924.75;;;33.00;31.85
33454;BME280;39400;49.744;7.012;2022-08-03T13:48:22;95915.81;;;32.90;32.27
33454;BME280;39400;49.744;7.012;2022-08-03T13:51:04;95925.53;;;33.13;31.76
33454;BME280;39400;49.744;7.012;2022-08-03T13:53:50;95923.66;;;33.03;31.43